createdAt,value
2023-03-26T00:01:07.663Z,4.47
2023-03-26T00:03:37.398Z,5.00
2023-03-26T00:06:07.682Z,4.40
2023-03-26T00:08:37.760Z,4.57
2023-03-26T00:11:07.632Z,3.80
2023-03-26T00:13:36.035Z,4.43
2023-03-26T00:16:04.557Z,4.03
2023-03-26T00:18:35.030Z,2.83
2023-03-26T00:21:04.469Z,4.05
2023-03-26T00:23:34.000Z,4.40
2023-03-26T00:26:03.972Z,4.28
2023-03-26T00:28:31.857Z,5.78
2023-03-26T00:31:01.730Z,6.88
2023-03-26T00:33:31.881Z,6.93
2023-03-26T00:36:04.322Z,7.18
2023-03-26T00:38:33.764Z,7.85
2023-03-26T00:41:06.272Z,7.70
2023-03-26T00:43:35.657Z,7.20
2023-03-26T00:46:04.129Z,7.05
2023-03-26T00:48:44.620Z,6.80
2023-03-26T00:51:15.748Z,5.80
2023-03-26T00:53:45.688Z,5.30
2023-03-26T00:56:15.573Z,5.10
2023-03-26T00:58:43.828Z,5.30
2023-03-26T01:01:14.389Z,5.60
2023-03-26T01:03:53.085Z,5.13
2023-03-26T01:06:30.599Z,6.03
2023-03-26T01:09:00.393Z,5.90
2023-03-26T01:11:32.250Z,5.45
2023-03-26T01:14:03.225Z,6.20
2023-03-26T01:16:37.300Z,5.97
2023-03-26T01:19:10.311Z,5.93
2023-03-26T01:21:39.737Z,6.32
2023-03-26T01:24:10.405Z,6.32
2023-03-26T01:26:54.103Z,6.78
2023-03-26T01:29:25.991Z,6.63
2023-03-26T01:32:04.787Z,7.43
2023-03-26T01:34:40.644Z,7.07
2023-03-26T01:37:17.870Z,6.07
2023-03-26T01:39:53.348Z,7.18
2023-03-26T01:42:27.675Z,7.40
2023-03-26T01:44:58.977Z,7.03
2023-03-26T01:47:27.484Z,7.60
2023-03-26T01:49:55.312Z,7.45
2023-03-26T01:52:26.228Z,9.20
2023-03-26T01:54:56.043Z,7.72
2023-03-26T01:57:33.546Z,7.32
2023-03-26T02:00:11.800Z,6.95
2023-03-26T02:02:50.808Z,8.02
2023-03-26T02:05:22.483Z,7.47
2023-03-26T02:07:54.152Z,8.05
2023-03-26T02:10:25.892Z,7.57
2023-03-26T02:12:54.019Z,7.43
2023-03-26T02:15:22.100Z,8.40
2023-03-26T02:17:52.483Z,7.07
2023-03-26T02:20:21.547Z,8.05
2023-03-26T02:22:49.390Z,7.53
2023-03-26T02:25:21.241Z,8.73
2023-03-26T02:27:53.413Z,8.25
2023-03-26T02:30:25.753Z,7.50
2023-03-26T02:32:59.419Z,7.38
2023-03-26T02:35:34.727Z,7.68
2023-03-26T02:38:03.854Z,8.93
2023-03-26T02:40:31.614Z,8.00
2023-03-26T02:43:01.498Z,7.68
2023-03-26T02:45:32.597Z,8.02
2023-03-26T02:48:21.607Z,7.85
2023-03-26T02:50:55.480Z,6.85
2023-03-26T02:53:30.550Z,8.20
2023-03-26T02:56:34.397Z,7.32
2023-03-26T02:59:16.701Z,7.72
2023-03-26T03:01:47.423Z,8.50
2023-03-26T03:04:18.464Z,7.63
2023-03-26T03:06:53.007Z,8.10
2023-03-26T03:09:21.361Z,7.45
2023-03-26T03:12:24.060Z,8.15
2023-03-26T03:14:53.226Z,8.82
2023-03-26T03:17:21.232Z,9.70
2023-03-26T03:19:48.947Z,8.77
2023-03-26T03:22:17.883Z,9.98
2023-03-26T03:24:48.050Z,9.93
2023-03-26T03:27:16.114Z,10.07
2023-03-26T03:29:49.000Z,10.35
2023-03-26T03:32:44.818Z,9.65
2023-03-26T03:35:14.403Z,9.55
2023-03-26T03:37:45.582Z,10.35
2023-03-26T03:40:14.359Z,10.38
2023-03-26T03:42:42.358Z,9.75
2023-03-26T03:45:12.098Z,10.85
2023-03-26T03:47:53.263Z,11.10
2023-03-26T03:50:28.274Z,10.43
2023-03-26T03:53:15.910Z,10.05
2023-03-26T03:55:53.541Z,10.90
2023-03-26T03:58:28.445Z,11.48
2023-03-26T04:01:03.110Z,10.90
2023-03-26T04:03:55.223Z,10.23
2023-03-26T04:06:30.187Z,11.17
2023-03-26T04:08:58.075Z,10.30
2023-03-26T04:11:26.291Z,9.60
2023-03-26T04:14:14.044Z,11.05
2023-03-26T04:16:57.238Z,9.80
2023-03-26T04:19:27.800Z,11.32
2023-03-26T04:21:56.019Z,11.30
2023-03-26T04:24:24.576Z,10.95
2023-03-26T04:27:14.480Z,10.60
2023-03-26T04:29:44.600Z,9.48
2023-03-26T04:32:24.670Z,9.23
2023-03-26T04:34:54.276Z,9.57
2023-03-26T04:37:27.868Z,8.50
2023-03-26T04:40:10.272Z,8.40
2023-03-26T04:42:41.740Z,7.53
2023-03-26T04:45:22.916Z,7.40
2023-03-26T04:47:58.272Z,6.35
2023-03-26T04:50:28.076Z,7.03
2023-03-26T04:52:58.000Z,7.68
2023-03-26T04:56:01.478Z,6.88
2023-03-26T04:59:02.284Z,6.45
2023-03-26T05:01:37.943Z,6.10
2023-03-26T05:04:07.297Z,6.00
2023-03-26T05:06:38.149Z,6.32
2023-03-26T05:09:14.487Z,5.97
2023-03-26T05:12:02.371Z,5.68
2023-03-26T05:14:36.180Z,6.40
2023-03-26T05:17:06.245Z,7.10
2023-03-26T05:19:34.381Z,7.10
2023-03-26T05:22:04.601Z,7.63
2023-03-26T05:24:35.777Z,7.15
2023-03-26T05:27:05.517Z,7.70
2023-03-26T05:29:35.694Z,6.80
2023-03-26T05:32:04.055Z,7.60
2023-03-26T05:34:32.123Z,7.07
2023-03-26T05:36:59.951Z,8.23
2023-03-26T05:39:46.028Z,8.57
2023-03-26T05:42:52.331Z,8.60
2023-03-26T05:45:43.359Z,8.68
2023-03-26T05:48:20.918Z,8.25
2023-03-26T05:50:49.511Z,7.78
2023-03-26T05:53:18.360Z,7.93
2023-03-26T05:56:06.540Z,7.22
2023-03-26T05:58:35.573Z,7.30
2023-03-26T06:01:44.801Z,7.63
2023-03-26T06:04:13.694Z,6.57
2023-03-26T06:06:48.014Z,7.03
2023-03-26T06:09:16.989Z,7.93
2023-03-26T06:11:46.182Z,6.45
2023-03-26T06:14:14.355Z,6.45
2023-03-26T06:16:58.391Z,6.82
2023-03-26T06:19:26.645Z,7.32
2023-03-26T06:22:12.541Z,7.32
2023-03-26T06:25:09.787Z,5.82
2023-03-26T06:27:53.847Z,7.17
2023-03-26T06:30:47.528Z,6.13
2023-03-26T06:33:42.042Z,6.93
2023-03-26T06:36:12.426Z,5.55
2023-03-26T06:38:40.492Z,5.75
2023-03-26T06:41:09.586Z,5.95
2023-03-26T06:44:02.133Z,6.88
2023-03-26T06:46:49.020Z,7.20
2023-03-26T06:49:49.537Z,7.65
2023-03-26T06:52:38.029Z,6.32
2023-03-26T06:55:29.081Z,5.93
2023-03-26T06:58:23.846Z,5.43
2023-03-26T07:01:11.747Z,6.38
2023-03-26T07:03:59.996Z,5.97
2023-03-26T07:06:46.930Z,6.38
2023-03-26T07:09:48.083Z,5.57
2023-03-26T07:12:36.082Z,5.60
2023-03-26T07:15:30.127Z,7.17
2023-03-26T07:18:12.461Z,6.43
2023-03-26T07:20:42.598Z,7.20
2023-03-26T07:23:12.025Z,6.40
2023-03-26T07:25:46.595Z,6.07
2023-03-26T07:28:35.412Z,6.57
2023-03-26T07:31:27.420Z,6.30
2023-03-26T07:34:36.073Z,6.50
2023-03-26T07:37:45.169Z,6.90
2023-03-26T07:40:48.551Z,6.63
2023-03-26T07:43:45.582Z,6.53
2023-03-26T07:46:41.645Z,6.30
2023-03-26T07:49:31.425Z,6.95
2023-03-26T07:52:02.661Z,7.05
2023-03-26T07:54:46.250Z,5.60
2023-03-26T07:57:40.701Z,6.55
2023-03-26T08:00:37.499Z,6.75
2023-03-26T08:03:27.520Z,6.55
2023-03-26T08:06:18.059Z,6.47
2023-03-26T08:09:16.082Z,7.50
2023-03-26T08:12:19.552Z,6.10
2023-03-26T08:14:53.532Z,7.90
2023-03-26T08:17:30.998Z,7.40
2023-03-26T08:20:07.444Z,7.28
2023-03-26T08:22:41.217Z,7.68
2023-03-26T08:25:25.903Z,8.20
2023-03-26T08:28:03.346Z,7.60
2023-03-26T08:30:32.581Z,8.93
2023-03-26T08:33:01.903Z,8.63
2023-03-26T08:35:30.049Z,8.45
2023-03-26T08:38:00.018Z,9.68
2023-03-26T08:40:45.089Z,9.43
2023-03-26T08:43:45.913Z,9.27
2023-03-26T08:46:28.834Z,9.23
2023-03-26T08:49:16.164Z,9.68
2023-03-26T08:52:21.506Z,10.45
2023-03-26T08:55:04.335Z,10.70
2023-03-26T08:57:47.046Z,11.52
2023-03-26T09:00:26.679Z,11.07
2023-03-26T09:03:15.775Z,10.43
2023-03-26T09:06:34.506Z,9.90
2023-03-26T09:09:31.495Z,11.10
2023-03-26T09:12:25.391Z,9.93
2023-03-26T09:15:36.599Z,10.20
2023-03-26T09:18:38.188Z,9.57
2023-03-26T09:21:47.199Z,9.27
2023-03-26T09:24:51.705Z,9.13
2023-03-26T09:27:39.779Z,8.77
2023-03-26T09:30:31.422Z,7.45
2023-03-26T09:33:27.958Z,9.13
2023-03-26T09:36:18.293Z,8.60
2023-03-26T09:38:52.204Z,7.68
2023-03-26T09:41:34.200Z,6.32
2023-03-26T09:44:24.520Z,6.88
2023-03-26T09:47:23.644Z,7.75
2023-03-26T09:50:01.120Z,6.78
2023-03-26T09:52:52.093Z,7.25
2023-03-26T09:55:38.935Z,7.25
2023-03-26T09:58:22.452Z,6.20
2023-03-26T10:01:09.171Z,6.53
2023-03-26T10:03:52.010Z,6.25
2023-03-26T10:06:40.392Z,6.07
2023-03-26T10:09:33.288Z,6.85
2023-03-26T10:12:32.945Z,6.65
2023-03-26T10:15:16.157Z,7.82
2023-03-26T10:21:18.079Z,6.97
2023-03-26T10:24:04.015Z,7.05
2023-03-26T10:27:09.088Z,6.55
2023-03-26T10:29:46.399Z,7.22
2023-03-26T10:32:28.816Z,7.85
2023-03-26T10:35:25.577Z,9.57
2023-03-26T10:38:17.536Z,10.63
2023-03-26T10:40:55.812Z,11.82
2023-03-26T10:43:57.872Z,13.23
2023-03-26T10:46:54.577Z,13.82
2023-03-26T10:49:51.715Z,13.20
2023-03-26T10:52:28.326Z,14.65
2023-03-26T10:55:01.746Z,14.30
2023-03-26T10:57:37.530Z,13.30
2023-03-26T11:00:25.409Z,12.07
2023-03-26T11:03:11.844Z,17.08
2023-03-26T11:05:48.745Z,11.50
2023-03-26T11:08:31.647Z,10.55
2023-03-26T11:11:10.132Z,10.48
2023-03-26T11:13:48.203Z,10.02
2023-03-26T11:16:23.078Z,9.68
2023-03-26T11:18:57.433Z,8.77
2023-03-26T11:21:34.442Z,9.38
2023-03-26T11:24:28.626Z,9.52
2023-03-26T11:27:15.426Z,8.82
2023-03-26T11:29:53.469Z,9.63
2023-03-26T11:32:23.840Z,8.57
2023-03-26T11:34:58.516Z,8.13
2023-03-26T11:37:30.697Z,7.05
2023-03-26T11:40:01.007Z,6.75
2023-03-26T11:42:29.857Z,6.90
2023-03-26T11:45:01.233Z,6.35
2023-03-26T11:47:33.346Z,6.05
2023-03-26T11:50:02.131Z,6.25
2023-03-26T11:52:32.527Z,5.32
2023-03-26T11:55:10.563Z,5.90
2023-03-26T11:57:57.298Z,5.20
2023-03-26T12:00:34.249Z,6.32
2023-03-26T12:03:04.582Z,5.28
2023-03-26T12:05:58.254Z,5.28
2023-03-26T12:08:34.378Z,5.38
2023-03-26T12:14:25.391Z,4.97
2023-03-26T12:17:05.955Z,5.50
2023-03-26T12:19:43.184Z,4.78
2023-03-26T12:22:43.618Z,4.82
2023-03-26T12:25:30.116Z,4.97
2023-03-26T12:28:03.777Z,5.43
2023-03-26T12:30:35.059Z,5.35
2023-03-26T12:33:07.354Z,5.55
2023-03-26T12:35:37.111Z,4.57
2023-03-26T12:38:22.088Z,4.57
2023-03-26T12:40:51.013Z,4.93
2023-03-26T12:44:48.982Z,4.88
2023-03-26T12:47:56.896Z,4.60
2023-03-26T12:49:29.533Z,4.80
2023-03-26T12:52:04.877Z,4.63
2023-03-26T12:54:44.789Z,5.05
2023-03-26T12:57:21.210Z,5.90
2023-03-26T12:59:59.675Z,4.60
2023-03-26T13:02:42.102Z,4.68
2023-03-26T13:05:19.747Z,4.38
2023-03-26T13:07:58.952Z,4.30
2023-03-26T13:10:37.608Z,4.25
2023-03-26T13:13:17.205Z,3.80
2023-03-26T13:15:48.904Z,3.58
2023-03-26T13:18:26.602Z,3.65
2023-03-26T13:20:59.541Z,3.47
2023-03-26T13:23:34.926Z,3.30
2023-03-26T13:26:11.979Z,3.40
2023-03-26T13:28:44.979Z,3.47
2023-03-26T13:31:19.306Z,4.47
2023-03-26T13:33:53.967Z,3.47
2023-03-26T13:36:25.607Z,3.15
2023-03-26T13:39:07.589Z,3.53
2023-03-26T13:41:46.454Z,3.65
2023-03-26T13:44:20.436Z,3.50
2023-03-26T13:46:52.089Z,3.80
2023-03-26T13:49:31.077Z,3.50
2023-03-26T13:52:01.823Z,3.88
2023-03-26T13:54:32.160Z,2.83
2023-03-26T13:57:05.778Z,3.42
2023-03-26T13:59:39.632Z,2.75
2023-03-26T14:02:11.963Z,3.03
2023-03-26T14:04:43.862Z,2.88
2023-03-26T14:07:19.144Z,2.38
2023-03-26T14:09:49.261Z,2.45
2023-03-26T14:12:31.684Z,2.50
2023-03-26T14:15:02.327Z,2.25
2023-03-26T14:17:36.454Z,2.42
2023-03-26T14:23:02.483Z,2.67
2023-03-26T14:25:39.227Z,3.08
2023-03-26T14:28:21.296Z,3.08
2023-03-26T14:31:20.673Z,2.70
2023-03-26T14:34:02.414Z,2.42
2023-03-26T14:36:47.371Z,3.08
2023-03-26T14:39:27.623Z,2.38
2023-03-26T14:42:00.210Z,2.58
2023-03-26T14:44:49.081Z,2.83
2023-03-26T14:47:18.485Z,3.28
2023-03-26T14:50:27.018Z,2.78
2023-03-26T14:53:00.844Z,3.03
2023-03-26T14:56:08.753Z,3.63
2023-03-26T14:59:25.589Z,2.63
2023-03-26T15:02:55.825Z,2.67
2023-03-26T15:06:02.504Z,3.20
2023-03-26T15:09:24.180Z,3.45
2023-03-26T15:12:12.358Z,2.65
2023-03-26T15:18:28.120Z,3.05
2023-03-26T15:21:38.944Z,2.40
2023-03-26T15:24:18.138Z,3.05
2023-03-26T15:27:10.682Z,2.97
2023-03-26T15:30:15.144Z,3.47
2023-03-26T15:32:58.686Z,3.03
2023-03-26T15:35:55.740Z,2.80
2023-03-26T15:38:56.968Z,3.08
2023-03-26T15:41:28.291Z,2.78
2023-03-26T15:44:22.935Z,2.50
2023-03-26T15:46:59.237Z,3.97
2023-03-26T15:49:35.872Z,4.88
2023-03-26T15:52:09.698Z,4.40
2023-03-26T15:54:47.552Z,2.60
2023-03-26T15:57:22.288Z,3.67
2023-03-26T15:59:59.903Z,2.97
2023-03-26T16:02:50.523Z,10.02
2023-03-26T16:05:32.280Z,3.33
2023-03-26T16:08:09.659Z,3.00
2023-03-26T16:10:46.412Z,2.50
2023-03-26T16:13:35.476Z,2.60
2023-03-26T16:16:19.583Z,2.85
2023-03-26T16:18:50.393Z,3.55
2023-03-26T16:21:42.024Z,2.95
2023-03-26T16:24:31.746Z,2.42
2023-03-26T16:27:20.222Z,2.65
2023-03-26T16:30:28.503Z,2.60
2023-03-26T16:33:00.468Z,2.20
2023-03-26T16:36:06.328Z,2.67
2023-03-26T16:38:51.969Z,3.28
2023-03-26T16:41:22.427Z,2.28
2023-03-26T16:44:11.609Z,2.20
2023-03-26T16:46:45.898Z,2.45
2023-03-26T16:49:24.256Z,3.05
2023-03-26T16:52:03.655Z,2.28
2023-03-26T16:54:41.028Z,2.35
2023-03-26T16:57:18.033Z,2.65
2023-03-26T17:00:16.642Z,2.30
2023-03-26T17:02:52.059Z,2.13
2023-03-26T17:05:22.327Z,2.47
2023-03-26T17:07:54.700Z,2.42
2023-03-26T17:10:31.209Z,2.30
2023-03-26T17:13:05.646Z,2.65
2023-03-26T17:15:41.214Z,2.20
2023-03-26T17:18:29.675Z,2.80
2023-03-26T17:21:02.045Z,2.38
2023-03-26T17:23:42.406Z,2.13
2023-03-26T17:26:22.616Z,2.20
2023-03-26T17:29:19.015Z,2.35
2023-03-26T17:31:54.368Z,2.55
2023-03-26T17:34:45.617Z,2.30
2023-03-26T17:37:45.837Z,2.55
2023-03-26T17:40:51.615Z,1.92
2023-03-26T17:43:38.177Z,2.17
2023-03-26T17:46:14.576Z,1.63
2023-03-26T17:48:47.110Z,1.85
2023-03-26T17:51:30.354Z,1.95
2023-03-26T17:53:58.994Z,1.92
2023-03-26T17:56:29.757Z,2.15
2023-03-26T17:59:11.309Z,2.42
2023-03-26T18:01:41.465Z,2.70
2023-03-26T18:04:15.878Z,2.35
2023-03-26T18:07:06.143Z,2.17
2023-03-26T18:09:48.265Z,2.78
2023-03-26T18:12:42.938Z,2.28
2023-03-26T18:17:44.743Z,2.33
2023-03-26T18:20:25.914Z,1.60
2023-03-26T18:23:09.839Z,2.10
2023-03-26T18:25:42.577Z,2.00
2023-03-26T18:28:17.139Z,2.80
2023-03-26T18:30:48.074Z,2.33
2023-03-26T18:33:19.152Z,2.60
2023-03-26T18:35:54.729Z,2.30
2023-03-26T18:38:35.888Z,2.45
2023-03-26T18:41:15.458Z,2.35
2023-03-26T18:43:44.813Z,5.35
2023-03-26T18:46:14.438Z,2.33
2023-03-26T18:48:46.679Z,2.08
2023-03-26T18:51:46.486Z,2.83
2023-03-26T18:54:33.131Z,3.20
2023-03-26T18:57:28.373Z,3.35
2023-03-26T19:00:26.765Z,2.40
2023-03-26T19:03:06.521Z,2.33
2023-03-26T19:05:40.856Z,2.88
2023-03-26T19:08:20.209Z,2.55
2023-03-26T19:10:50.562Z,2.30
2023-03-26T19:13:23.041Z,2.60
2023-03-26T19:15:54.176Z,2.85
2023-03-26T19:18:25.767Z,4.10
2023-03-26T19:21:00.786Z,2.35
2023-03-26T19:23:36.155Z,2.30
2023-03-26T19:26:06.856Z,2.45
2023-03-26T19:28:36.668Z,2.70
2023-03-26T19:31:10.507Z,2.60
2023-03-26T19:33:41.181Z,2.95
2023-03-26T19:36:19.349Z,2.47
2023-03-26T19:38:52.939Z,2.03
2023-03-26T19:41:23.316Z,2.92
2023-03-26T19:43:52.151Z,2.25
2023-03-26T19:46:24.170Z,1.88
2023-03-26T19:48:53.385Z,2.40
2023-03-26T19:51:23.046Z,2.85
2023-03-26T19:53:56.946Z,2.50
2023-03-26T19:58:52.748Z,2.20
2023-03-26T20:01:22.067Z,2.38
2023-03-26T20:03:51.717Z,2.35
2023-03-26T20:06:30.694Z,2.30
2023-03-26T20:09:04.205Z,2.22
2023-03-26T20:11:34.350Z,2.38
2023-03-26T20:14:02.378Z,2.35
2023-03-26T20:16:33.737Z,2.58
2023-03-26T20:19:04.125Z,2.92
2023-03-26T20:21:34.731Z,2.95
2023-03-26T20:24:11.668Z,2.72
2023-03-26T20:26:39.687Z,2.38
2023-03-26T20:29:07.426Z,3.42
2023-03-26T20:31:35.230Z,3.05
2023-03-26T20:34:03.139Z,2.58
2023-03-26T20:36:33.215Z,2.15
2023-03-26T20:39:06.574Z,2.42
2023-03-26T20:41:34.992Z,2.45
2023-03-26T20:44:04.876Z,2.20
2023-03-26T20:46:33.506Z,2.10
2023-03-26T20:49:01.714Z,2.80
2023-03-26T20:51:30.054Z,2.78
2023-03-26T20:53:57.887Z,2.38
2023-03-26T20:56:27.335Z,2.33
2023-03-26T20:59:09.819Z,2.47
2023-03-26T21:01:38.961Z,2.23
2023-03-26T21:04:06.868Z,2.22
2023-03-26T21:06:34.862Z,2.00
2023-03-26T21:09:04.107Z,2.20
2023-03-26T21:11:40.955Z,2.55
2023-03-26T21:14:13.795Z,2.33
2023-03-26T21:16:42.174Z,2.08
2023-03-26T21:19:11.118Z,2.15
2023-03-26T21:21:49.031Z,2.08
2023-03-26T21:24:24.822Z,2.15
2023-03-26T21:26:59.185Z,2.03
2023-03-26T21:29:28.075Z,1.98
2023-03-26T21:31:56.341Z,1.45
2023-03-26T21:34:24.833Z,1.83
2023-03-26T21:36:53.138Z,2.22
2023-03-26T21:39:21.601Z,1.90
2023-03-26T21:42:05.803Z,2.10
2023-03-26T21:44:36.340Z,2.70
2023-03-26T21:47:05.308Z,2.65
2023-03-26T21:49:35.043Z,2.13
2023-03-26T21:52:03.261Z,2.53
2023-03-26T21:54:32.712Z,2.67
2023-03-26T21:57:13.050Z,3.00
2023-03-26T21:59:47.845Z,1.98
2023-03-26T22:02:23.321Z,3.03
2023-03-26T22:04:55.002Z,2.65
2023-03-26T22:07:26.829Z,2.40
2023-03-26T22:09:55.405Z,1.95
2023-03-26T22:12:25.562Z,1.90
2023-03-26T22:14:54.900Z,2.47
2023-03-26T22:17:23.816Z,2.42
2023-03-26T22:19:51.659Z,2.70
2023-03-26T22:22:19.472Z,2.30
2023-03-26T22:24:47.312Z,2.97
2023-03-26T22:27:16.061Z,2.60
2023-03-26T22:29:43.888Z,2.33
2023-03-26T22:32:13.888Z,2.30
2023-03-26T22:34:41.986Z,2.08
2023-03-26T22:37:09.828Z,2.42
2023-03-26T22:39:38.005Z,1.95
2023-03-26T22:42:05.879Z,2.58
2023-03-26T22:44:33.582Z,1.85
2023-03-26T22:47:01.596Z,2.10
2023-03-26T22:49:31.408Z,2.70
2023-03-26T22:51:59.216Z,2.58
2023-03-26T22:54:27.324Z,2.20
2023-03-26T22:56:55.505Z,2.60
2023-03-26T22:59:23.335Z,2.17
2023-03-26T23:01:51.252Z,2.63
2023-03-26T23:04:31.329Z,2.22
2023-03-26T23:07:01.485Z,2.65
2023-03-26T23:09:29.600Z,2.33
2023-03-26T23:11:57.705Z,2.10
2023-03-26T23:14:25.511Z,2.40
2023-03-26T23:16:53.301Z,2.70
2023-03-26T23:19:21.208Z,2.08
2023-03-26T23:21:48.985Z,2.55
2023-03-26T23:24:18.513Z,2.13
2023-03-26T23:29:17.410Z,2.00
2023-03-26T23:31:45.358Z,2.22
2023-03-26T23:34:16.908Z,3.13
2023-03-26T23:36:45.355Z,1.95
2023-03-26T23:39:13.212Z,2.45
2023-03-26T23:41:43.034Z,2.33
2023-03-26T23:44:14.661Z,2.33
2023-03-26T23:46:42.704Z,2.30
2023-03-26T23:49:10.644Z,2.55
2023-03-26T23:51:38.621Z,2.20
2023-03-26T23:54:06.753Z,2.67
2023-03-26T23:56:34.721Z,2.63
2023-03-26T23:59:04.914Z,2.30
